Ruffin, North Carolina
Current Conditions -  °F | °C
As of 4:53 AM on Sunday 25 Jan 2015 (Local Time) from KDAN Reporting Station
Clear Clear  
Wind Chill: 30°   Ceiling: Unl
Heat Index: 36°   Visibility: 10mi
Dew Point: 26°   Wind: 7mph
Humidity: 67%   Direction: 260°W
Pressure: 29.87"   Gusts: NA
Location:  36.45°N, 79.54°W
Report Text: KDAN 250953Z AUTO 26006KT 10SM CLR 02/M03 A2987 RMK AO2 SLP111 T00221033
Loading
Personal Weather Stations






























Interactive Weather Map New forecast layout! Learn more

10-Day Weather Forecast

Advertisements
Track Severe Weather on mobile